sensor_id;sensor_type;location;lat;lon;timestamp;P1;durP1;ratioP1;P2;durP2;ratioP2
27863;SDS011;15980;51.092;13.916;2023-03-23T00:09:01;2.72;;;1.00;;
27863;SDS011;15980;51.092;13.916;2023-03-23T00:19:03;1.75;;;1.10;;
27863;SDS011;15980;51.092;13.916;2023-03-23T00:29:11;1.60;;;0.93;;
27863;SDS011;15980;51.092;13.916;2023-03-23T00:39:19;2.42;;;1.00;;
27863;SDS011;15980;51.092;13.916;2023-03-23T00:49:20;1.35;;;0.93;;
27863;SDS011;15980;51.092;13.916;2023-03-23T00:59:21;2.45;;;0.80;;
27863;SDS011;15980;51.092;13.916;2023-03-23T01:09:22;2.65;;;1.15;;
27863;SDS011;15980;51.092;13.916;2023-03-23T01:19:22;1.98;;;0.70;;
27863;SDS011;15980;51.092;13.916;2023-03-23T01:29:23;1.90;;;1.00;;
27863;SDS011;15980;51.092;13.916;2023-03-23T01:39:23;1.85;;;1.08;;
27863;SDS011;15980;51.092;13.916;2023-03-23T01:49:24;2.08;;;0.88;;
27863;SDS011;15980;51.092;13.916;2023-03-23T01:59:29;1.13;;;0.60;;
27863;SDS011;15980;51.092;13.916;2023-03-23T02:09:31;1.07;;;0.70;;
27863;SDS011;15980;51.092;13.916;2023-03-23T02:40:15;2.92;;;0.73;;
27863;SDS011;15980;51.092;13.916;2023-03-23T02:50:22;1.10;;;0.70;;
27863;SDS011;15980;51.092;13.916;2023-03-23T03:00:25;1.33;;;0.60;;
27863;SDS011;15980;51.092;13.916;2023-03-23T03:10:26;1.92;;;0.80;;
27863;SDS011;15980;51.092;13.916;2023-03-23T03:20:34;1.33;;;0.77;;
27863;SDS011;15980;51.092;13.916;2023-03-23T03:30:40;1.23;;;0.50;;
27863;SDS011;15980;51.092;13.916;2023-03-23T03:40:43;3.53;;;0.67;;
27863;SDS011;15980;51.092;13.916;2023-03-23T03:50:43;3.30;;;1.00;;
27863;SDS011;15980;51.092;13.916;2023-03-23T04:00:43;1.30;;;1.00;;
27863;SDS011;15980;51.092;13.916;2023-03-23T04:10:43;4.72;;;0.70;;
27863;SDS011;15980;51.092;13.916;2023-03-23T04:20:44;2.78;;;0.95;;
27863;SDS011;15980;51.092;13.916;2023-03-23T04:30:46;3.55;;;1.05;;
27863;SDS011;15980;51.092;13.916;2023-03-23T04:40:47;4.25;;;1.60;;
27863;SDS011;15980;51.092;13.916;2023-03-23T04:50:48;3.17;;;1.85;;
27863;SDS011;15980;51.092;13.916;2023-03-23T05:00:48;3.28;;;1.58;;
27863;SDS011;15980;51.092;13.916;2023-03-23T05:10:49;4.50;;;1.90;;
27863;SDS011;15980;51.092;13.916;2023-03-23T05:20:54;4.50;;;1.42;;
27863;SDS011;15980;51.092;13.916;2023-03-23T05:30:54;3.92;;;1.83;;
27863;SDS011;15980;51.092;13.916;2023-03-23T05:40:57;4.00;;;1.42;;
27863;SDS011;15980;51.092;13.916;2023-03-23T05:50:58;2.85;;;1.60;;
27863;SDS011;15980;51.092;13.916;2023-03-23T06:00:59;4.72;;;1.73;;
27863;SDS011;15980;51.092;13.916;2023-03-23T06:10:59;3.33;;;1.42;;
27863;SDS011;15980;51.092;13.916;2023-03-23T06:20:59;4.32;;;1.88;;
27863;SDS011;15980;51.092;13.916;2023-03-23T06:31:03;2.03;;;1.05;;
27863;SDS011;15980;51.092;13.916;2023-03-23T06:41:05;2.13;;;1.27;;
27863;SDS011;15980;51.092;13.916;2023-03-23T06:51:05;2.72;;;1.40;;
27863;SDS011;15980;51.092;13.916;2023-03-23T07:01:06;2.72;;;1.20;;
27863;SDS011;15980;51.092;13.916;2023-03-23T07:11:07;2.67;;;1.50;;
27863;SDS011;15980;51.092;13.916;2023-03-23T07:21:07;2.70;;;0.88;;
27863;SDS011;15980;51.092;13.916;2023-03-23T07:31:07;1.92;;;1.05;;
27863;SDS011;15980;51.092;13.916;2023-03-23T07:41:08;4.07;;;0.90;;
27863;SDS011;15980;51.092;13.916;2023-03-23T07:51:08;1.73;;;0.95;;
27863;SDS011;15980;51.092;13.916;2023-03-23T08:01:08;3.58;;;1.08;;
27863;SDS011;15980;51.092;13.916;2023-03-23T08:11:09;2.97;;;1.02;;
27863;SDS011;15980;51.092;13.916;2023-03-23T08:21:09;1.88;;;0.90;;
27863;SDS011;15980;51.092;13.916;2023-03-23T08:31:10;2.80;;;1.10;;
27863;SDS011;15980;51.092;13.916;2023-03-23T08:41:13;2.15;;;1.10;;
27863;SDS011;15980;51.092;13.916;2023-03-23T08:51:13;1.27;;;1.00;;
27863;SDS011;15980;51.092;13.916;2023-03-23T09:01:14;2.08;;;1.25;;
27863;SDS011;15980;51.092;13.916;2023-03-23T09:11:14;3.50;;;1.00;;
27863;SDS011;15980;51.092;13.916;2023-03-23T09:21:15;3.00;;;1.00;;
27863;SDS011;15980;51.092;13.916;2023-03-23T09:31:15;3.83;;;1.40;;
27863;SDS011;15980;51.092;13.916;2023-03-23T09:41:38;2.83;;;1.48;;
27863;SDS011;15980;51.092;13.916;2023-03-23T09:52:16;3.20;;;1.35;;
27863;SDS011;15980;51.092;13.916;2023-03-23T10:02:25;2.55;;;1.25;;
27863;SDS011;15980;51.092;13.916;2023-03-23T10:23:00;1.30;;;1.10;;
27863;SDS011;15980;51.092;13.916;2023-03-23T10:33:26;1.95;;;1.00;;
27863;SDS011;15980;51.092;13.916;2023-03-23T10:43:38;1.52;;;0.85;;
27863;SDS011;15980;51.092;13.916;2023-03-23T10:53:43;2.10;;;1.03;;
27863;SDS011;15980;51.092;13.916;2023-03-23T11:03:46;1.75;;;1.08;;
27863;SDS011;15980;51.092;13.916;2023-03-23T11:13:48;1.42;;;0.90;;
27863;SDS011;15980;51.092;13.916;2023-03-23T11:23:57;1.55;;;1.02;;
27863;SDS011;15980;51.092;13.916;2023-03-23T11:34:00;1.85;;;0.90;;
27863;SDS011;15980;51.092;13.916;2023-03-23T11:44:08;3.35;;;1.23;;
27863;SDS011;15980;51.092;13.916;2023-03-23T11:54:15;3.47;;;0.93;;
27863;SDS011;15980;51.092;13.916;2023-03-23T13:26:36;2.25;;;1.10;;
27863;SDS011;15980;51.092;13.916;2023-03-23T13:36:41;1.98;;;0.93;;
27863;SDS011;15980;51.092;13.916;2023-03-23T13:46:53;1.63;;;0.93;;
27863;SDS011;15980;51.092;13.916;2023-03-23T13:57:19;1.73;;;1.10;;
27863;SDS011;15980;51.092;13.916;2023-03-23T14:07:23;1.13;;;0.82;;
27863;SDS011;15980;51.092;13.916;2023-03-23T14:17:26;1.48;;;0.90;;
27863;SDS011;15980;51.092;13.916;2023-03-23T14:27:30;1.83;;;0.93;;
27863;SDS011;15980;51.092;13.916;2023-03-23T14:37:30;4.53;;;1.27;;
27863;SDS011;15980;51.092;13.916;2023-03-23T14:47:35;2.00;;;0.88;;
27863;SDS011;15980;51.092;13.916;2023-03-23T14:57:42;1.20;;;0.90;;
27863;SDS011;15980;51.092;13.916;2023-03-23T15:07:45;2.15;;;1.05;;
27863;SDS011;15980;51.092;13.916;2023-03-23T15:17:50;2.42;;;0.98;;
27863;SDS011;15980;51.092;13.916;2023-03-23T15:27:55;4.35;;;1.08;;
27863;SDS011;15980;51.092;13.916;2023-03-23T15:48:11;3.60;;;0.90;;
27863;SDS011;15980;51.092;13.916;2023-03-23T15:58:12;2.15;;;1.20;;
27863;SDS011;15980;51.092;13.916;2023-03-23T16:08:13;4.47;;;1.60;;
27863;SDS011;15980;51.092;13.916;2023-03-23T16:18:16;2.47;;;1.00;;
27863;SDS011;15980;51.092;13.916;2023-03-23T16:28:17;0.85;;;0.70;;
27863;SDS011;15980;51.092;13.916;2023-03-23T16:38:18;0.77;;;0.52;;
27863;SDS011;15980;51.092;13.916;2023-03-23T16:48:18;1.42;;;0.60;;
27863;SDS011;15980;51.092;13.916;2023-03-23T16:58:18;1.73;;;0.80;;
27863;SDS011;15980;51.092;13.916;2023-03-23T17:08:19;0.97;;;0.70;;
27863;SDS011;15980;51.092;13.916;2023-03-23T17:18:20;1.60;;;0.70;;
27863;SDS011;15980;51.092;13.916;2023-03-23T17:28:20;0.90;;;0.60;;
27863;SDS011;15980;51.092;13.916;2023-03-23T17:38:20;1.30;;;0.88;;
27863;SDS011;15980;51.092;13.916;2023-03-23T17:48:21;2.17;;;1.30;;
27863;SDS011;15980;51.092;13.916;2023-03-23T17:58:21;0.75;;;0.65;;
27863;SDS011;15980;51.092;13.916;2023-03-23T18:08:22;0.98;;;0.88;;
27863;SDS011;15980;51.092;13.916;2023-03-23T18:18:23;1.65;;;0.90;;
27863;SDS011;15980;51.092;13.916;2023-03-23T18:28:24;2.65;;;1.15;;
27863;SDS011;15980;51.092;13.916;2023-03-23T18:38:25;3.38;;;1.77;;
27863;SDS011;15980;51.092;13.916;2023-03-23T18:48:26;4.32;;;2.00;;
27863;SDS011;15980;51.092;13.916;2023-03-23T18:58:26;8.10;;;2.08;;
27863;SDS011;15980;51.092;13.916;2023-03-23T19:08:27;3.85;;;2.10;;
27863;SDS011;15980;51.092;13.916;2023-03-23T19:18:28;4.22;;;2.00;;
27863;SDS011;15980;51.092;13.916;2023-03-23T19:28:28;4.32;;;2.20;;
27863;SDS011;15980;51.092;13.916;2023-03-23T19:38:28;4.75;;;2.53;;
27863;SDS011;15980;51.092;13.916;2023-03-23T19:48:29;3.72;;;2.60;;
27863;SDS011;15980;51.092;13.916;2023-03-23T19:58:29;3.90;;;2.40;;
27863;SDS011;15980;51.092;13.916;2023-03-23T20:08:30;3.58;;;1.83;;
27863;SDS011;15980;51.092;13.916;2023-03-23T20:18:30;3.40;;;1.83;;
27863;SDS011;15980;51.092;13.916;2023-03-23T20:28:31;4.20;;;2.58;;
27863;SDS011;15980;51.092;13.916;2023-03-23T20:38:31;4.35;;;2.78;;
27863;SDS011;15980;51.092;13.916;2023-03-23T20:48:32;4.97;;;2.30;;
27863;SDS011;15980;51.092;13.916;2023-03-23T20:58:34;3.53;;;2.37;;
27863;SDS011;15980;51.092;13.916;2023-03-23T21:08:35;6.50;;;2.38;;
27863;SDS011;15980;51.092;13.916;2023-03-23T21:18:37;3.83;;;1.77;;
27863;SDS011;15980;51.092;13.916;2023-03-23T21:28:37;2.50;;;1.13;;
27863;SDS011;15980;51.092;13.916;2023-03-23T21:38:38;1.77;;;1.23;;
27863;SDS011;15980;51.092;13.916;2023-03-23T21:48:38;3.88;;;1.35;;
27863;SDS011;15980;51.092;13.916;2023-03-23T21:58:39;1.20;;;1.08;;
27863;SDS011;15980;51.092;13.916;2023-03-23T22:08:40;2.03;;;1.35;;
27863;SDS011;15980;51.092;13.916;2023-03-23T22:18:42;2.00;;;1.07;;
27863;SDS011;15980;51.092;13.916;2023-03-23T22:28:44;2.13;;;1.42;;
27863;SDS011;15980;51.092;13.916;2023-03-23T22:38:46;2.00;;;1.40;;
27863;SDS011;15980;51.092;13.916;2023-03-23T22:48:47;4.90;;;1.63;;
27863;SDS011;15980;51.092;13.916;2023-03-23T22:58:47;4.37;;;1.60;;
27863;SDS011;15980;51.092;13.916;2023-03-23T23:08:48;4.18;;;1.83;;
27863;SDS011;15980;51.092;13.916;2023-03-23T23:18:48;3.35;;;1.75;;
27863;SDS011;15980;51.092;13.916;2023-03-23T23:28:49;3.80;;;1.88;;
27863;SDS011;15980;51.092;13.916;2023-03-23T23:38:49;2.45;;;1.48;;
27863;SDS011;15980;51.092;13.916;2023-03-23T23:48:50;6.28;;;1.98;;
27863;SDS011;15980;51.092;13.916;2023-03-23T23:58:50;4.30;;;2.03;;
